sensor_id;sensor_type;location;lat;lon;timestamp;P1;durP1;ratioP1;P2;durP2;ratioP2
18104;SDS011;9179;50.968;3.134;2023-03-01T00:00:16;2.45;;;2.35;;
18104;SDS011;9179;50.968;3.134;2023-03-01T00:02:43;2.88;;;2.67;;
18104;SDS011;9179;50.968;3.134;2023-03-01T00:05:10;2.80;;;2.60;;
18104;SDS011;9179;50.968;3.134;2023-03-01T00:07:38;3.35;;;2.83;;
18104;SDS011;9179;50.968;3.134;2023-03-01T00:10:06;2.60;;;2.40;;
18104;SDS011;9179;50.968;3.134;2023-03-01T00:12:34;2.65;;;2.45;;
18104;SDS011;9179;50.968;3.134;2023-03-01T00:15:01;2.67;;;2.45;;
18104;SDS011;9179;50.968;3.134;2023-03-01T00:17:29;2.50;;;2.30;;
18104;SDS011;9179;50.968;3.134;2023-03-01T00:19:56;2.92;;;2.72;;
18104;SDS011;9179;50.968;3.134;2023-03-01T00:22:23;3.22;;;3.03;;
18104;SDS011;9179;50.968;3.134;2023-03-01T00:24:54;2.63;;;2.42;;
18104;SDS011;9179;50.968;3.134;2023-03-01T00:27:21;2.42;;;2.33;;
18104;SDS011;9179;50.968;3.134;2023-03-01T00:29:48;2.85;;;2.65;;
18104;SDS011;9179;50.968;3.134;2023-03-01T00:32:15;2.97;;;2.78;;
18104;SDS011;9179;50.968;3.134;2023-03-01T00:34:42;3.30;;;3.10;;
18104;SDS011;9179;50.968;3.134;2023-03-01T00:37:19;2.80;;;2.53;;
18104;SDS011;9179;50.968;3.134;2023-03-01T00:39:46;2.35;;;2.25;;
18104;SDS011;9179;50.968;3.134;2023-03-01T00:42:14;3.00;;;2.80;;
18104;SDS011;9179;50.968;3.134;2023-03-01T00:44:42;2.40;;;2.20;;
18104;SDS011;9179;50.968;3.134;2023-03-01T00:47:09;3.15;;;2.80;;
18104;SDS011;9179;50.968;3.134;2023-03-01T00:49:36;3.13;;;2.92;;
18104;SDS011;9179;50.968;3.134;2023-03-01T00:52:02;2.55;;;2.40;;
18104;SDS011;9179;50.968;3.134;2023-03-01T00:54:30;3.10;;;2.90;;
18104;SDS011;9179;50.968;3.134;2023-03-01T00:56:57;2.95;;;2.47;;
18104;SDS011;9179;50.968;3.134;2023-03-01T00:59:25;3.38;;;2.38;;
18104;SDS011;9179;50.968;3.134;2023-03-01T01:01:52;2.75;;;2.58;;
18104;SDS011;9179;50.968;3.134;2023-03-01T01:04:19;2.70;;;2.50;;
18104;SDS011;9179;50.968;3.134;2023-03-01T01:06:46;2.83;;;2.63;;
18104;SDS011;9179;50.968;3.134;2023-03-01T01:09:14;2.58;;;2.47;;
18104;SDS011;9179;50.968;3.134;2023-03-01T01:11:43;2.50;;;2.30;;
18104;SDS011;9179;50.968;3.134;2023-03-01T01:14:11;2.60;;;2.50;;
18104;SDS011;9179;50.968;3.134;2023-03-01T01:16:40;3.42;;;3.13;;
18104;SDS011;9179;50.968;3.134;2023-03-01T01:19:07;2.90;;;2.70;;
18104;SDS011;9179;50.968;3.134;2023-03-01T01:21:34;2.67;;;2.47;;
18104;SDS011;9179;50.968;3.134;2023-03-01T01:24:02;3.25;;;2.60;;
18104;SDS011;9179;50.968;3.134;2023-03-01T01:26:31;2.90;;;2.70;;
18104;SDS011;9179;50.968;3.134;2023-03-01T01:28:59;4.18;;;2.83;;
18104;SDS011;9179;50.968;3.134;2023-03-01T01:31:27;2.78;;;2.58;;
18104;SDS011;9179;50.968;3.134;2023-03-01T01:33:56;3.03;;;2.83;;
18104;SDS011;9179;50.968;3.134;2023-03-01T01:36:24;2.85;;;2.65;;
18104;SDS011;9179;50.968;3.134;2023-03-01T01:38:51;2.58;;;2.38;;
18104;SDS011;9179;50.968;3.134;2023-03-01T01:41:18;2.55;;;2.35;;
18104;SDS011;9179;50.968;3.134;2023-03-01T01:43:47;2.40;;;2.30;;
18104;SDS011;9179;50.968;3.134;2023-03-01T01:46:16;3.10;;;2.80;;
18104;SDS011;9179;50.968;3.134;2023-03-01T01:48:53;2.85;;;2.65;;
18104;SDS011;9179;50.968;3.134;2023-03-01T01:51:25;2.97;;;2.65;;
18104;SDS011;9179;50.968;3.134;2023-03-01T01:54:03;2.53;;;2.33;;
18104;SDS011;9179;50.968;3.134;2023-03-01T01:56:34;2.95;;;2.55;;
18104;SDS011;9179;50.968;3.134;2023-03-01T01:59:05;2.80;;;2.60;;
18104;SDS011;9179;50.968;3.134;2023-03-01T02:01:33;2.60;;;2.40;;
18104;SDS011;9179;50.968;3.134;2023-03-01T02:04:01;2.33;;;2.13;;
18104;SDS011;9179;50.968;3.134;2023-03-01T02:06:29;2.53;;;2.35;;
18104;SDS011;9179;50.968;3.134;2023-03-01T02:09:00;2.40;;;2.30;;
18104;SDS011;9179;50.968;3.134;2023-03-01T02:11:31;2.67;;;2.58;;
18104;SDS011;9179;50.968;3.134;2023-03-01T02:13:59;2.45;;;2.35;;
18104;SDS011;9179;50.968;3.134;2023-03-01T02:16:26;1.98;;;1.88;;
18104;SDS011;9179;50.968;3.134;2023-03-01T02:18:54;2.33;;;2.22;;
18104;SDS011;9179;50.968;3.134;2023-03-01T02:21:27;2.35;;;2.25;;
18104;SDS011;9179;50.968;3.134;2023-03-01T02:24:03;2.20;;;2.10;;
18104;SDS011;9179;50.968;3.134;2023-03-01T02:26:39;4.03;;;2.58;;
18104;SDS011;9179;50.968;3.134;2023-03-01T02:29:12;2.58;;;2.38;;
18104;SDS011;9179;50.968;3.134;2023-03-01T02:31:39;2.55;;;2.20;;
18104;SDS011;9179;50.968;3.134;2023-03-01T02:34:08;2.50;;;2.30;;
18104;SDS011;9179;50.968;3.134;2023-03-01T02:36:38;2.28;;;2.13;;
18104;SDS011;9179;50.968;3.134;2023-03-01T02:39:07;2.92;;;2.72;;
18104;SDS011;9179;50.968;3.134;2023-03-01T02:41:39;2.50;;;2.33;;
18104;SDS011;9179;50.968;3.134;2023-03-01T02:44:09;2.13;;;2.03;;
18104;SDS011;9179;50.968;3.134;2023-03-01T02:46:42;2.10;;;2.00;;
18104;SDS011;9179;50.968;3.134;2023-03-01T02:49:21;2.30;;;2.15;;
18104;SDS011;9179;50.968;3.134;2023-03-01T02:54:48;2.40;;;2.20;;
18104;SDS011;9179;50.968;3.134;2023-03-01T02:57:18;2.70;;;2.50;;
18104;SDS011;9179;50.968;3.134;2023-03-01T02:59:47;2.45;;;2.25;;
18104;SDS011;9179;50.968;3.134;2023-03-01T03:02:20;2.08;;;1.98;;
18104;SDS011;9179;50.968;3.134;2023-03-01T03:05:00;2.20;;;2.10;;
18104;SDS011;9179;50.968;3.134;2023-03-01T03:07:31;2.60;;;2.40;;
18104;SDS011;9179;50.968;3.134;2023-03-01T03:09:59;2.70;;;2.50;;
18104;SDS011;9179;50.968;3.134;2023-03-01T03:12:26;2.30;;;2.10;;
18104;SDS011;9179;50.968;3.134;2023-03-01T03:14:53;2.15;;;2.05;;
18104;SDS011;9179;50.968;3.134;2023-03-01T03:17:21;2.50;;;2.30;;
18104;SDS011;9179;50.968;3.134;2023-03-01T03:19:48;2.38;;;2.28;;
18104;SDS011;9179;50.968;3.134;2023-03-01T03:22:15;2.17;;;1.98;;
18104;SDS011;9179;50.968;3.134;2023-03-01T03:24:42;2.25;;;1.98;;
18104;SDS011;9179;50.968;3.134;2023-03-01T03:27:09;2.75;;;2.47;;
18104;SDS011;9179;50.968;3.134;2023-03-01T03:29:36;2.28;;;2.00;;
18104;SDS011;9179;50.968;3.134;2023-03-01T03:32:03;1.88;;;1.77;;
18104;SDS011;9179;50.968;3.134;2023-03-01T03:34:31;2.22;;;2.03;;
18104;SDS011;9179;50.968;3.134;2023-03-01T03:36:58;2.15;;;2.05;;
18104;SDS011;9179;50.968;3.134;2023-03-01T03:39:25;2.17;;;2.08;;
18104;SDS011;9179;50.968;3.134;2023-03-01T03:41:54;2.45;;;2.22;;
18104;SDS011;9179;50.968;3.134;2023-03-01T03:44:21;2.20;;;2.00;;
18104;SDS011;9179;50.968;3.134;2023-03-01T03:46:48;1.80;;;1.70;;
18104;SDS011;9179;50.968;3.134;2023-03-01T03:49:15;2.22;;;2.13;;
18104;SDS011;9179;50.968;3.134;2023-03-01T03:51:44;2.15;;;2.05;;
18104;SDS011;9179;50.968;3.134;2023-03-01T03:54:12;2.08;;;1.98;;
18104;SDS011;9179;50.968;3.134;2023-03-01T03:56:39;2.35;;;2.15;;
18104;SDS011;9179;50.968;3.134;2023-03-01T03:59:06;2.05;;;1.95;;
18104;SDS011;9179;50.968;3.134;2023-03-01T04:01:36;2.17;;;2.08;;
18104;SDS011;9179;50.968;3.134;2023-03-01T04:04:03;2.08;;;1.90;;
18104;SDS011;9179;50.968;3.134;2023-03-01T04:06:32;2.72;;;2.53;;
18104;SDS011;9179;50.968;3.134;2023-03-01T04:09:01;2.28;;;2.13;;
18104;SDS011;9179;50.968;3.134;2023-03-01T04:11:28;2.10;;;2.00;;
18104;SDS011;9179;50.968;3.134;2023-03-01T04:13:56;2.10;;;2.00;;
18104;SDS011;9179;50.968;3.134;2023-03-01T04:16:25;2.25;;;2.15;;
18104;SDS011;9179;50.968;3.134;2023-03-01T04:18:52;2.28;;;2.08;;
18104;SDS011;9179;50.968;3.134;2023-03-01T04:21:20;2.00;;;1.90;;
18104;SDS011;9179;50.968;3.134;2023-03-01T04:23:47;2.42;;;2.33;;
18104;SDS011;9179;50.968;3.134;2023-03-01T04:26:18;2.15;;;2.05;;
18104;SDS011;9179;50.968;3.134;2023-03-01T04:28:46;2.42;;;2.33;;
18104;SDS011;9179;50.968;3.134;2023-03-01T04:31:15;2.25;;;2.15;;
18104;SDS011;9179;50.968;3.134;2023-03-01T04:33:46;2.00;;;1.90;;
18104;SDS011;9179;50.968;3.134;2023-03-01T04:36:16;2.38;;;2.28;;
18104;SDS011;9179;50.968;3.134;2023-03-01T04:38:45;2.00;;;1.90;;
18104;SDS011;9179;50.968;3.134;2023-03-01T04:41:13;1.92;;;1.80;;
18104;SDS011;9179;50.968;3.134;2023-03-01T04:43:43;2.20;;;2.10;;
18104;SDS011;9179;50.968;3.134;2023-03-01T04:46:10;2.10;;;2.00;;
18104;SDS011;9179;50.968;3.134;2023-03-01T04:48:40;2.30;;;2.20;;
18104;SDS011;9179;50.968;3.134;2023-03-01T04:51:08;1.80;;;1.70;;
18104;SDS011;9179;50.968;3.134;2023-03-01T04:53:38;2.58;;;1.92;;
18104;SDS011;9179;50.968;3.134;2023-03-01T04:56:06;2.00;;;1.88;;
18104;SDS011;9179;50.968;3.134;2023-03-01T04:58:33;1.77;;;1.67;;
18104;SDS011;9179;50.968;3.134;2023-03-01T05:01:01;1.75;;;1.65;;
18104;SDS011;9179;50.968;3.134;2023-03-01T05:03:40;2.40;;;1.85;;
18104;SDS011;9179;50.968;3.134;2023-03-01T05:06:08;1.75;;;1.52;;
18104;SDS011;9179;50.968;3.134;2023-03-01T05:08:36;2.10;;;1.73;;
18104;SDS011;9179;50.968;3.134;2023-03-01T05:11:03;1.73;;;1.63;;
18104;SDS011;9179;50.968;3.134;2023-03-01T05:13:34;2.13;;;2.03;;
18104;SDS011;9179;50.968;3.134;2023-03-01T05:16:04;1.85;;;1.60;;
18104;SDS011;9179;50.968;3.134;2023-03-01T05:18:32;2.28;;;2.08;;
18104;SDS011;9179;50.968;3.134;2023-03-01T05:21:01;2.00;;;1.80;;
18104;SDS011;9179;50.968;3.134;2023-03-01T05:23:29;1.58;;;1.48;;
18104;SDS011;9179;50.968;3.134;2023-03-01T05:25:57;1.75;;;1.65;;
18104;SDS011;9179;50.968;3.134;2023-03-01T05:28:25;2.17;;;1.98;;
18104;SDS011;9179;50.968;3.134;2023-03-01T05:30:53;1.92;;;1.70;;
18104;SDS011;9179;50.968;3.134;2023-03-01T05:33:22;1.67;;;1.58;;
18104;SDS011;9179;50.968;3.134;2023-03-01T05:35:49;1.80;;;1.70;;
18104;SDS011;9179;50.968;3.134;2023-03-01T05:38:18;1.80;;;1.70;;
18104;SDS011;9179;50.968;3.134;2023-03-01T05:40:47;1.77;;;1.67;;
18104;SDS011;9179;50.968;3.134;2023-03-01T05:43:15;9.57;;;3.40;;
18104;SDS011;9179;50.968;3.134;2023-03-01T05:45:43;10.25;;;2.47;;
18104;SDS011;9179;50.968;3.134;2023-03-01T05:48:10;6.70;;;2.47;;
18104;SDS011;9179;50.968;3.134;2023-03-01T05:50:40;3.03;;;2.30;;
18104;SDS011;9179;50.968;3.134;2023-03-01T05:53:09;2.95;;;2.38;;
18104;SDS011;9179;50.968;3.134;2023-03-01T05:55:38;4.40;;;2.10;;
18104;SDS011;9179;50.968;3.134;2023-03-01T05:58:06;9.73;;;2.35;;
18104;SDS011;9179;50.968;3.134;2023-03-01T06:00:35;1.85;;;1.75;;
18104;SDS011;9179;50.968;3.134;2023-03-01T06:03:03;3.85;;;2.15;;
18104;SDS011;9179;50.968;3.134;2023-03-01T06:05:30;4.30;;;1.80;;
18104;SDS011;9179;50.968;3.134;2023-03-01T06:07:59;5.72;;;2.03;;
18104;SDS011;9179;50.968;3.134;2023-03-01T06:10:26;5.15;;;1.85;;
18104;SDS011;9179;50.968;3.134;2023-03-01T06:12:54;4.53;;;2.08;;
18104;SDS011;9179;50.968;3.134;2023-03-01T06:15:21;2.22;;;1.95;;
18104;SDS011;9179;50.968;3.134;2023-03-01T06:17:49;4.30;;;2.25;;
18104;SDS011;9179;50.968;3.134;2023-03-01T06:20:17;5.28;;;2.08;;
18104;SDS011;9179;50.968;3.134;2023-03-01T06:22:46;3.75;;;1.83;;
18104;SDS011;9179;50.968;3.134;2023-03-01T06:25:16;3.88;;;2.10;;
18104;SDS011;9179;50.968;3.134;2023-03-01T06:27:46;1.75;;;1.60;;
18104;SDS011;9179;50.968;3.134;2023-03-01T06:30:14;3.67;;;2.28;;
18104;SDS011;9179;50.968;3.134;2023-03-01T06:32:42;2.83;;;1.60;;
18104;SDS011;9179;50.968;3.134;2023-03-01T06:35:10;3.65;;;1.83;;
18104;SDS011;9179;50.968;3.134;2023-03-01T06:37:39;1.98;;;1.88;;
18104;SDS011;9179;50.968;3.134;2023-03-01T06:40:07;2.65;;;1.80;;
18104;SDS011;9179;50.968;3.134;2023-03-01T06:42:38;2.35;;;1.70;;
18104;SDS011;9179;50.968;3.134;2023-03-01T06:45:07;5.65;;;2.20;;
18104;SDS011;9179;50.968;3.134;2023-03-01T06:47:35;3.00;;;1.92;;
18104;SDS011;9179;50.968;3.134;2023-03-01T06:50:02;3.63;;;1.98;;
18104;SDS011;9179;50.968;3.134;2023-03-01T06:52:30;4.15;;;1.75;;
18104;SDS011;9179;50.968;3.134;2023-03-01T06:54:57;5.38;;;2.03;;
18104;SDS011;9179;50.968;3.134;2023-03-01T06:57:24;3.70;;;1.90;;
18104;SDS011;9179;50.968;3.134;2023-03-01T06:59:52;3.95;;;1.98;;
18104;SDS011;9179;50.968;3.134;2023-03-01T07:02:19;6.57;;;2.13;;
18104;SDS011;9179;50.968;3.134;2023-03-01T07:04:46;3.97;;;2.00;;
18104;SDS011;9179;50.968;3.134;2023-03-01T07:07:14;4.18;;;1.80;;
18104;SDS011;9179;50.968;3.134;2023-03-01T07:09:43;2.95;;;2.08;;
18104;SDS011;9179;50.968;3.134;2023-03-01T07:12:10;2.30;;;1.85;;
18104;SDS011;9179;50.968;3.134;2023-03-01T07:14:37;2.22;;;2.10;;
18104;SDS011;9179;50.968;3.134;2023-03-01T07:17:05;1.70;;;1.60;;
18104;SDS011;9179;50.968;3.134;2023-03-01T07:19:32;2.30;;;1.75;;
18104;SDS011;9179;50.968;3.134;2023-03-01T07:21:59;1.83;;;1.67;;
18104;SDS011;9179;50.968;3.134;2023-03-01T07:24:26;2.47;;;1.70;;
18104;SDS011;9179;50.968;3.134;2023-03-01T07:26:53;2.17;;;1.98;;
18104;SDS011;9179;50.968;3.134;2023-03-01T07:29:20;2.15;;;1.58;;
18104;SDS011;9179;50.968;3.134;2023-03-01T07:31:47;1.60;;;1.50;;
18104;SDS011;9179;50.968;3.134;2023-03-01T07:34:15;2.78;;;1.90;;
18104;SDS011;9179;50.968;3.134;2023-03-01T07:36:42;2.67;;;1.90;;
18104;SDS011;9179;50.968;3.134;2023-03-01T07:39:10;2.20;;;2.00;;
18104;SDS011;9179;50.968;3.134;2023-03-01T07:41:37;2.08;;;1.98;;
18104;SDS011;9179;50.968;3.134;2023-03-01T07:44:04;1.80;;;1.60;;
18104;SDS011;9179;50.968;3.134;2023-03-01T07:46:32;2.20;;;1.67;;
18104;SDS011;9179;50.968;3.134;2023-03-01T07:48:59;2.75;;;1.67;;
18104;SDS011;9179;50.968;3.134;2023-03-01T07:51:27;2.00;;;1.80;;
18104;SDS011;9179;50.968;3.134;2023-03-01T07:53:55;5.78;;;2.15;;
18104;SDS011;9179;50.968;3.134;2023-03-01T07:56:21;3.13;;;2.20;;
18104;SDS011;9179;50.968;3.134;2023-03-01T07:58:48;1.98;;;1.85;;
18104;SDS011;9179;50.968;3.134;2023-03-01T08:01:16;3.33;;;1.73;;
18104;SDS011;9179;50.968;3.134;2023-03-01T08:03:44;1.95;;;1.83;;
18104;SDS011;9179;50.968;3.134;2023-03-01T08:06:12;2.47;;;1.90;;
18104;SDS011;9179;50.968;3.134;2023-03-01T08:08:43;2.05;;;1.85;;
18104;SDS011;9179;50.968;3.134;2023-03-01T08:11:11;2.75;;;2.25;;
18104;SDS011;9179;50.968;3.134;2023-03-01T08:13:40;2.08;;;1.65;;
18104;SDS011;9179;50.968;3.134;2023-03-01T08:16:08;2.63;;;1.60;;
18104;SDS011;9179;50.968;3.134;2023-03-01T08:18:37;2.03;;;1.70;;
18104;SDS011;9179;50.968;3.134;2023-03-01T08:21:05;2.28;;;1.75;;
18104;SDS011;9179;50.968;3.134;2023-03-01T08:23:33;2.03;;;1.83;;
18104;SDS011;9179;50.968;3.134;2023-03-01T08:26:05;3.60;;;1.65;;
18104;SDS011;9179;50.968;3.134;2023-03-01T08:28:33;2.70;;;1.67;;
18104;SDS011;9179;50.968;3.134;2023-03-01T08:31:00;2.10;;;2.00;;
18104;SDS011;9179;50.968;3.134;2023-03-01T08:33:27;3.33;;;3.03;;
18104;SDS011;9179;50.968;3.134;2023-03-01T08:36:01;3.90;;;2.78;;
18104;SDS011;9179;50.968;3.134;2023-03-01T08:38:29;2.63;;;2.30;;
18104;SDS011;9179;50.968;3.134;2023-03-01T08:40:58;2.53;;;2.33;;
18104;SDS011;9179;50.968;3.134;2023-03-01T08:43:28;2.42;;;1.95;;
18104;SDS011;9179;50.968;3.134;2023-03-01T08:45:55;2.60;;;1.70;;
18104;SDS011;9179;50.968;3.134;2023-03-01T08:48:22;2.10;;;1.90;;
18104;SDS011;9179;50.968;3.134;2023-03-01T08:50:50;2.40;;;2.20;;
18104;SDS011;9179;50.968;3.134;2023-03-01T08:53:17;2.33;;;2.10;;
18104;SDS011;9179;50.968;3.134;2023-03-01T08:55:44;1.98;;;1.88;;
18104;SDS011;9179;50.968;3.134;2023-03-01T08:58:11;2.05;;;1.95;;
18104;SDS011;9179;50.968;3.134;2023-03-01T09:00:39;2.38;;;1.90;;
18104;SDS011;9179;50.968;3.134;2023-03-01T09:03:06;3.38;;;2.08;;
18104;SDS011;9179;50.968;3.134;2023-03-01T09:05:34;2.40;;;2.20;;
18104;SDS011;9179;50.968;3.134;2023-03-01T09:08:01;2.00;;;1.77;;
18104;SDS011;9179;50.968;3.134;2023-03-01T09:10:28;2.38;;;1.80;;
18104;SDS011;9179;50.968;3.134;2023-03-01T09:12:55;2.80;;;2.00;;
18104;SDS011;9179;50.968;3.134;2023-03-01T09:15:22;2.13;;;1.92;;
18104;SDS011;9179;50.968;3.134;2023-03-01T09:17:50;2.05;;;1.85;;
18104;SDS011;9179;50.968;3.134;2023-03-01T09:20:17;2.17;;;2.05;;
18104;SDS011;9179;50.968;3.134;2023-03-01T09:22:44;4.10;;;2.00;;
18104;SDS011;9179;50.968;3.134;2023-03-01T09:25:11;4.60;;;2.17;;
18104;SDS011;9179;50.968;3.134;2023-03-01T09:27:38;2.75;;;2.55;;
18104;SDS011;9179;50.968;3.134;2023-03-01T09:30:06;4.78;;;2.20;;
18104;SDS011;9179;50.968;3.134;2023-03-01T09:32:34;6.20;;;2.58;;
18104;SDS011;9179;50.968;3.134;2023-03-01T09:35:02;3.72;;;2.20;;
18104;SDS011;9179;50.968;3.134;2023-03-01T09:37:31;5.07;;;2.22;;
18104;SDS011;9179;50.968;3.134;2023-03-01T09:39:58;6.28;;;2.20;;
18104;SDS011;9179;50.968;3.134;2023-03-01T09:42:25;3.78;;;2.03;;
18104;SDS011;9179;50.968;3.134;2023-03-01T09:44:54;2.30;;;2.20;;
18104;SDS011;9179;50.968;3.134;2023-03-01T09:47:25;2.70;;;2.35;;
18104;SDS011;9179;50.968;3.134;2023-03-01T09:49:57;3.03;;;2.28;;
18104;SDS011;9179;50.968;3.134;2023-03-01T09:52:30;3.30;;;2.20;;
18104;SDS011;9179;50.968;3.134;2023-03-01T09:55:04;5.65;;;2.10;;
18104;SDS011;9179;50.968;3.134;2023-03-01T09:57:36;2.45;;;1.90;;
18104;SDS011;9179;50.968;3.134;2023-03-01T10:00:13;2.83;;;2.03;;
18104;SDS011;9179;50.968;3.134;2023-03-01T10:02:47;3.45;;;2.30;;
18104;SDS011;9179;50.968;3.134;2023-03-01T10:05:27;1.98;;;1.67;;
18104;SDS011;9179;50.968;3.134;2023-03-01T10:08:05;3.22;;;2.10;;
18104;SDS011;9179;50.968;3.134;2023-03-01T10:10:46;1.98;;;1.77;;
18104;SDS011;9179;50.968;3.134;2023-03-01T10:13:15;2.78;;;2.17;;
18104;SDS011;9179;50.968;3.134;2023-03-01T10:15:54;3.40;;;2.13;;
18104;SDS011;9179;50.968;3.134;2023-03-01T10:18:24;2.78;;;2.08;;
18104;SDS011;9179;50.968;3.134;2023-03-01T10:20:54;2.42;;;2.15;;
18104;SDS011;9179;50.968;3.134;2023-03-01T10:23:26;5.55;;;2.08;;
18104;SDS011;9179;50.968;3.134;2023-03-01T10:26:04;3.95;;;2.15;;
18104;SDS011;9179;50.968;3.134;2023-03-01T10:28:44;1.75;;;1.65;;
18104;SDS011;9179;50.968;3.134;2023-03-01T10:31:18;4.65;;;1.95;;
18104;SDS011;9179;50.968;3.134;2023-03-01T10:33:53;2.03;;;1.90;;
18104;SDS011;9179;50.968;3.134;2023-03-01T10:36:21;1.85;;;1.75;;
18104;SDS011;9179;50.968;3.134;2023-03-01T10:38:50;2.53;;;1.73;;
18104;SDS011;9179;50.968;3.134;2023-03-01T10:41:19;2.50;;;1.80;;
18104;SDS011;9179;50.968;3.134;2023-03-01T10:43:50;3.50;;;2.00;;
18104;SDS011;9179;50.968;3.134;2023-03-01T10:46:22;2.65;;;2.00;;
18104;SDS011;9179;50.968;3.134;2023-03-01T10:51:41;2.00;;;1.80;;
18104;SDS011;9179;50.968;3.134;2023-03-01T10:54:17;1.83;;;1.73;;
18104;SDS011;9179;50.968;3.134;2023-03-01T10:56:46;1.83;;;1.73;;
18104;SDS011;9179;50.968;3.134;2023-03-01T10:59:22;1.80;;;1.70;;
18104;SDS011;9179;50.968;3.134;2023-03-01T11:02:03;2.28;;;1.98;;
18104;SDS011;9179;50.968;3.134;2023-03-01T11:04:54;4.40;;;2.15;;
18104;SDS011;9179;50.968;3.134;2023-03-01T11:07:24;2.22;;;2.03;;
18104;SDS011;9179;50.968;3.134;2023-03-01T11:09:52;2.20;;;1.77;;
18104;SDS011;9179;50.968;3.134;2023-03-01T11:12:20;1.50;;;1.40;;
18104;SDS011;9179;50.968;3.134;2023-03-01T11:14:48;2.10;;;1.90;;
18104;SDS011;9179;50.968;3.134;2023-03-01T11:17:17;3.63;;;1.63;;
18104;SDS011;9179;50.968;3.134;2023-03-01T11:19:59;2.63;;;1.75;;
18104;SDS011;9179;50.968;3.134;2023-03-01T11:22:28;2.17;;;1.90;;
18104;SDS011;9179;50.968;3.134;2023-03-01T11:24:58;2.95;;;1.70;;
18104;SDS011;9179;50.968;3.134;2023-03-01T11:27:28;3.53;;;1.55;;
18104;SDS011;9179;50.968;3.134;2023-03-01T11:29:58;1.70;;;1.60;;
18104;SDS011;9179;50.968;3.134;2023-03-01T11:32:31;1.73;;;1.63;;
18104;SDS011;9179;50.968;3.134;2023-03-01T11:35:03;4.07;;;1.90;;
18104;SDS011;9179;50.968;3.134;2023-03-01T11:37:36;2.50;;;1.80;;
18104;SDS011;9179;50.968;3.134;2023-03-01T11:40:13;3.05;;;1.50;;
18104;SDS011;9179;50.968;3.134;2023-03-01T11:42:46;4.18;;;2.03;;
18104;SDS011;9179;50.968;3.134;2023-03-01T11:45:19;2.70;;;1.95;;
18104;SDS011;9179;50.968;3.134;2023-03-01T11:48:02;2.40;;;1.77;;
18104;SDS011;9179;50.968;3.134;2023-03-01T11:50:44;2.47;;;2.08;;
18104;SDS011;9179;50.968;3.134;2023-03-01T11:53:26;2.78;;;1.50;;
18104;SDS011;9179;50.968;3.134;2023-03-01T11:56:08;2.47;;;1.65;;
18104;SDS011;9179;50.968;3.134;2023-03-01T11:58:55;4.07;;;1.60;;
18104;SDS011;9179;50.968;3.134;2023-03-01T12:01:39;2.65;;;1.50;;
18104;SDS011;9179;50.968;3.134;2023-03-01T12:04:34;2.08;;;1.80;;
18104;SDS011;9179;50.968;3.134;2023-03-01T12:07:20;2.55;;;1.95;;
18104;SDS011;9179;50.968;3.134;2023-03-01T12:10:03;2.92;;;1.73;;
18104;SDS011;9179;50.968;3.134;2023-03-01T12:12:54;1.70;;;1.60;;
18104;SDS011;9179;50.968;3.134;2023-03-01T12:15:33;1.77;;;1.67;;
18104;SDS011;9179;50.968;3.134;2023-03-01T12:18:12;1.52;;;1.40;;
18104;SDS011;9179;50.968;3.134;2023-03-01T12:21:00;2.80;;;1.70;;
18104;SDS011;9179;50.968;3.134;2023-03-01T12:26:29;1.50;;;1.20;;
18104;SDS011;9179;50.968;3.134;2023-03-01T12:29:05;2.60;;;1.60;;
18104;SDS011;9179;50.968;3.134;2023-03-01T12:31:53;4.10;;;1.48;;
18104;SDS011;9179;50.968;3.134;2023-03-01T12:34:39;4.05;;;1.58;;
18104;SDS011;9179;50.968;3.134;2023-03-01T12:37:20;1.42;;;1.35;;
18104;SDS011;9179;50.968;3.134;2023-03-01T12:39:59;1.85;;;1.25;;
18104;SDS011;9179;50.968;3.134;2023-03-01T12:42:42;2.90;;;1.85;;
18104;SDS011;9179;50.968;3.134;2023-03-01T12:45:32;3.05;;;1.45;;
18104;SDS011;9179;50.968;3.134;2023-03-01T12:48:15;1.58;;;1.48;;
18104;SDS011;9179;50.968;3.134;2023-03-01T12:50:57;2.00;;;1.50;;
18104;SDS011;9179;50.968;3.134;2023-03-01T12:53:29;1.63;;;1.50;;
18104;SDS011;9179;50.968;3.134;2023-03-01T12:55:59;1.80;;;1.50;;
18104;SDS011;9179;50.968;3.134;2023-03-01T12:58:29;2.95;;;1.40;;
18104;SDS011;9179;50.968;3.134;2023-03-01T13:01:13;1.75;;;1.65;;
18104;SDS011;9179;50.968;3.134;2023-03-01T13:03:56;1.73;;;1.63;;
18104;SDS011;9179;50.968;3.134;2023-03-01T13:06:55;1.35;;;1.25;;
18104;SDS011;9179;50.968;3.134;2023-03-01T13:09:30;1.48;;;1.38;;
18104;SDS011;9179;50.968;3.134;2023-03-01T13:12:01;3.75;;;1.48;;
18104;SDS011;9179;50.968;3.134;2023-03-01T13:14:35;7.47;;;2.50;;
18104;SDS011;9179;50.968;3.134;2023-03-01T13:20:11;2.03;;;1.60;;
18104;SDS011;9179;50.968;3.134;2023-03-01T13:22:43;1.70;;;1.10;;
18104;SDS011;9179;50.968;3.134;2023-03-01T13:25:13;1.48;;;1.40;;
18104;SDS011;9179;50.968;3.134;2023-03-01T13:27:43;2.05;;;1.45;;
18104;SDS011;9179;50.968;3.134;2023-03-01T13:36:10;2.22;;;1.75;;
18104;SDS011;9179;50.968;3.134;2023-03-01T13:38:45;2.40;;;1.42;;
18104;SDS011;9179;50.968;3.134;2023-03-01T13:41:13;3.08;;;1.42;;
18104;SDS011;9179;50.968;3.134;2023-03-01T13:43:41;3.72;;;1.83;;
18104;SDS011;9179;50.968;3.134;2023-03-01T13:46:11;2.92;;;1.42;;
18104;SDS011;9179;50.968;3.134;2023-03-01T13:48:47;3.92;;;1.58;;
18104;SDS011;9179;50.968;3.134;2023-03-01T13:51:19;2.30;;;1.50;;
18104;SDS011;9179;50.968;3.134;2023-03-01T13:53:49;1.88;;;1.50;;
18104;SDS011;9179;50.968;3.134;2023-03-01T13:56:18;4.22;;;2.13;;
18104;SDS011;9179;50.968;3.134;2023-03-01T13:58:50;2.50;;;1.10;;
18104;SDS011;9179;50.968;3.134;2023-03-01T14:01:23;1.58;;;1.13;;
18104;SDS011;9179;50.968;3.134;2023-03-01T14:03:53;1.20;;;1.17;;
18104;SDS011;9179;50.968;3.134;2023-03-01T14:06:22;1.50;;;1.40;;
18104;SDS011;9179;50.968;3.134;2023-03-01T14:08:51;1.70;;;1.50;;
18104;SDS011;9179;50.968;3.134;2023-03-01T14:11:31;2.08;;;1.30;;
18104;SDS011;9179;50.968;3.134;2023-03-01T14:14:19;2.30;;;1.55;;
18104;SDS011;9179;50.968;3.134;2023-03-01T14:17:07;1.60;;;1.17;;
18104;SDS011;9179;50.968;3.134;2023-03-01T14:20:07;3.90;;;1.60;;
18104;SDS011;9179;50.968;3.134;2023-03-01T14:22:37;1.95;;;1.42;;
18104;SDS011;9179;50.968;3.134;2023-03-01T14:25:16;3.95;;;1.30;;
18104;SDS011;9179;50.968;3.134;2023-03-01T14:27:54;1.58;;;1.48;;
18104;SDS011;9179;50.968;3.134;2023-03-01T14:30:23;1.98;;;1.45;;
18104;SDS011;9179;50.968;3.134;2023-03-01T14:32:54;7.45;;;1.80;;
18104;SDS011;9179;50.968;3.134;2023-03-01T14:35:24;1.58;;;1.45;;
18104;SDS011;9179;50.968;3.134;2023-03-01T14:37:53;2.17;;;1.30;;
18104;SDS011;9179;50.968;3.134;2023-03-01T14:40:24;2.60;;;1.30;;
18104;SDS011;9179;50.968;3.134;2023-03-01T14:42:53;1.35;;;1.25;;
18104;SDS011;9179;50.968;3.134;2023-03-01T14:45:24;1.30;;;1.20;;
18104;SDS011;9179;50.968;3.134;2023-03-01T14:47:52;2.75;;;1.38;;
18104;SDS011;9179;50.968;3.134;2023-03-01T14:50:26;2.58;;;1.83;;
18104;SDS011;9179;50.968;3.134;2023-03-01T14:52:54;1.35;;;1.25;;
18104;SDS011;9179;50.968;3.134;2023-03-01T14:55:25;1.33;;;1.23;;
18104;SDS011;9179;50.968;3.134;2023-03-01T14:57:55;1.17;;;1.10;;
18104;SDS011;9179;50.968;3.134;2023-03-01T15:00:24;2.10;;;1.20;;
18104;SDS011;9179;50.968;3.134;2023-03-01T15:02:54;1.00;;;0.90;;
18104;SDS011;9179;50.968;3.134;2023-03-01T15:05:25;1.85;;;1.33;;
18104;SDS011;9179;50.968;3.134;2023-03-01T15:07:55;1.45;;;1.35;;
18104;SDS011;9179;50.968;3.134;2023-03-01T15:10:24;2.05;;;1.20;;
18104;SDS011;9179;50.968;3.134;2023-03-01T15:12:53;1.83;;;1.30;;
18104;SDS011;9179;50.968;3.134;2023-03-01T15:15:30;1.20;;;1.20;;
18104;SDS011;9179;50.968;3.134;2023-03-01T15:18:03;1.40;;;1.30;;
18104;SDS011;9179;50.968;3.134;2023-03-01T15:20:34;1.20;;;1.17;;
18104;SDS011;9179;50.968;3.134;2023-03-01T15:23:01;1.27;;;1.17;;
18104;SDS011;9179;50.968;3.134;2023-03-01T15:25:30;1.20;;;1.17;;
18104;SDS011;9179;50.968;3.134;2023-03-01T15:27:58;1.00;;;1.00;;
18104;SDS011;9179;50.968;3.134;2023-03-01T15:30:27;1.45;;;1.35;;
18104;SDS011;9179;50.968;3.134;2023-03-01T15:33:19;1.70;;;1.60;;
18104;SDS011;9179;50.968;3.134;2023-03-01T15:35:56;1.10;;;1.00;;
18104;SDS011;9179;50.968;3.134;2023-03-01T15:38:25;1.92;;;1.20;;